createdAt,value
2023-12-03T00:00:15.404Z,-2.93
2023-12-03T00:02:42.155Z,-2.84
2023-12-03T00:05:09.368Z,-2.81
2023-12-03T00:07:36.127Z,-2.80
2023-12-03T00:10:02.670Z,-2.73
2023-12-03T00:12:29.184Z,-2.74
2023-12-03T00:14:55.563Z,-2.72
2023-12-03T00:17:21.922Z,-2.74
2023-12-03T00:19:48.534Z,-2.73
2023-12-03T00:22:15.098Z,-2.73
2023-12-03T00:24:41.554Z,-2.69
2023-12-03T00:27:07.978Z,-2.70
2023-12-03T00:29:34.345Z,-2.70
2023-12-03T00:32:00.696Z,-2.73
2023-12-03T00:34:27.172Z,-2.77
2023-12-03T00:36:53.565Z,-2.72
2023-12-03T00:39:19.954Z,-2.71
2023-12-03T00:41:46.403Z,-2.69
2023-12-03T00:44:12.895Z,-2.68
2023-12-03T00:46:39.333Z,-2.66
2023-12-03T00:49:05.865Z,-2.68
2023-12-03T00:51:32.369Z,-2.63
2023-12-03T00:53:58.748Z,-2.60
2023-12-03T00:56:25.146Z,-2.59
2023-12-03T00:58:51.739Z,-2.58
2023-12-03T01:01:20.570Z,-2.60
2023-12-03T01:03:47.054Z,-2.58
2023-12-03T01:06:13.584Z,-2.60
2023-12-03T01:08:39.994Z,-2.62
2023-12-03T01:11:07.133Z,-2.63
2023-12-03T01:13:33.511Z,-2.65
2023-12-03T01:15:59.918Z,-2.64
2023-12-03T01:18:26.432Z,-2.62
2023-12-03T01:20:52.909Z,-2.64
2023-12-03T01:23:19.279Z,-2.65
2023-12-03T01:25:45.636Z,-2.62
2023-12-03T01:28:12.247Z,-2.59
2023-12-03T01:30:38.704Z,-2.57
2023-12-03T01:33:05.190Z,-2.53
2023-12-03T01:35:32.133Z,-2.49
2023-12-03T01:37:59.316Z,-2.47
2023-12-03T01:40:25.826Z,-2.48
2023-12-03T01:42:52.174Z,-2.47
2023-12-03T01:45:18.612Z,-2.44
2023-12-03T01:47:45.012Z,-2.43
2023-12-03T01:50:12.300Z,-2.42
2023-12-03T01:52:39.016Z,-2.45
2023-12-03T01:55:07.501Z,-2.41
2023-12-03T01:57:34.821Z,-2.37
2023-12-03T02:00:01.247Z,-2.32
2023-12-03T02:02:27.831Z,-2.29
2023-12-03T02:04:54.274Z,-2.28
2023-12-03T02:07:20.760Z,-2.26
2023-12-03T02:09:47.448Z,-2.25
2023-12-03T02:12:13.938Z,-2.25
2023-12-03T02:14:40.370Z,-2.21
2023-12-03T02:17:06.799Z,-2.20
2023-12-03T02:19:33.181Z,-2.20
2023-12-03T02:21:59.582Z,-2.18
2023-12-03T02:24:25.985Z,-2.20
2023-12-03T02:26:52.366Z,-2.22
2023-12-03T02:29:18.748Z,-2.21
2023-12-03T02:31:45.094Z,-2.26
2023-12-03T02:34:13.417Z,-2.26
2023-12-03T02:36:40.480Z,-2.29
2023-12-03T02:39:06.962Z,-2.28
2023-12-03T02:41:33.336Z,-2.27
2023-12-03T02:43:59.701Z,-2.25
2023-12-03T02:46:26.126Z,-2.23
2023-12-03T02:48:52.565Z,-2.23
2023-12-03T02:51:19.038Z,-2.22
2023-12-03T02:53:46.972Z,-2.21
2023-12-03T02:56:14.050Z,-2.25
2023-12-03T02:58:41.289Z,-2.21
2023-12-03T03:01:08.339Z,-2.24
2023-12-03T03:03:34.847Z,-2.29
2023-12-03T03:06:01.536Z,-2.41
2023-12-03T03:08:27.965Z,-2.41
2023-12-03T03:10:54.329Z,-2.43
2023-12-03T03:13:20.687Z,-2.44
2023-12-03T03:15:47.572Z,-2.43
2023-12-03T03:18:14.039Z,-2.39
2023-12-03T03:20:40.489Z,-2.38
2023-12-03T03:23:06.849Z,-2.38
2023-12-03T03:25:33.534Z,-2.49
2023-12-03T03:27:59.868Z,-2.53
2023-12-03T03:30:26.283Z,-2.59
2023-12-03T03:32:52.700Z,-2.60
2023-12-03T03:35:19.072Z,-2.65
2023-12-03T03:37:45.485Z,-2.66
2023-12-03T03:40:12.142Z,-2.68
2023-12-03T03:42:38.510Z,-2.66
2023-12-03T03:45:05.549Z,-2.69
2023-12-03T03:47:31.977Z,-2.69
2023-12-03T03:49:58.332Z,-2.69
2023-12-03T03:52:24.740Z,-2.65
2023-12-03T03:54:51.147Z,-2.66
2023-12-03T03:57:17.548Z,-2.72
2023-12-03T03:59:44.325Z,-2.76
2023-12-03T04:02:10.744Z,-2.81
2023-12-03T04:04:37.202Z,-2.86
2023-12-03T04:07:03.751Z,-2.89
2023-12-03T04:09:31.618Z,-2.89
2023-12-03T04:11:58.058Z,-2.94
2023-12-03T04:14:24.407Z,-2.95
2023-12-03T04:16:50.782Z,-2.97
2023-12-03T04:19:17.197Z,-2.97
2023-12-03T04:21:43.699Z,-3.00
2023-12-03T04:24:10.167Z,-3.03
2023-12-03T04:26:36.533Z,-3.09
2023-12-03T04:29:03.178Z,-3.13
2023-12-03T04:31:29.559Z,-3.15
2023-12-03T04:36:24.946Z,-3.25
2023-12-03T04:38:52.235Z,-3.32
2023-12-03T04:41:18.968Z,-3.35
2023-12-03T04:43:45.348Z,-3.37
2023-12-03T04:46:12.184Z,-3.43
2023-12-03T04:48:40.511Z,-3.48
2023-12-03T04:51:07.401Z,-3.57
2023-12-03T04:53:34.175Z,-3.62
2023-12-03T04:56:00.566Z,-3.68
2023-12-03T04:58:26.936Z,-3.72
2023-12-03T05:00:53.700Z,-3.76
2023-12-03T05:03:20.579Z,-3.80
2023-12-03T05:05:46.936Z,-3.87
2023-12-03T05:08:13.325Z,-3.93
2023-12-03T05:10:39.833Z,-4.04
2023-12-03T05:13:06.181Z,-4.13
2023-12-03T05:15:32.637Z,-4.22
2023-12-03T05:17:59.109Z,-4.30
2023-12-03T05:20:25.515Z,-4.36
2023-12-03T05:22:51.933Z,-4.42
2023-12-03T05:25:18.906Z,-4.48
2023-12-03T05:27:45.650Z,-4.54
2023-12-03T05:30:14.337Z,-4.58
2023-12-03T05:32:41.685Z,-4.60
2023-12-03T05:35:08.480Z,-4.61
2023-12-03T05:37:34.857Z,-4.63
2023-12-03T05:40:01.215Z,-4.64
2023-12-03T05:42:27.695Z,-4.66
2023-12-03T05:44:54.056Z,-4.69
2023-12-03T05:47:20.391Z,-4.76
2023-12-03T05:49:46.819Z,-4.77
2023-12-03T05:52:13.279Z,-4.79
2023-12-03T05:54:43.357Z,-4.84
2023-12-03T06:05:15.842Z,-5.03
2023-12-03T06:27:36.675Z,-4.96
2023-12-03T06:30:03.256Z,-4.89
2023-12-03T06:32:29.651Z,-4.80
2023-12-03T06:34:56.046Z,-4.66
2023-12-03T06:37:22.434Z,-4.53
2023-12-03T06:39:49.034Z,-4.42
2023-12-03T06:42:15.494Z,-4.32
2023-12-03T06:44:44.888Z,-4.23
2023-12-03T06:47:11.666Z,-4.12
2023-12-03T06:49:38.157Z,-4.02
2023-12-03T06:52:04.730Z,-3.96
2023-12-03T06:54:31.217Z,-3.88
2023-12-03T06:56:57.611Z,-3.79
2023-12-03T06:59:23.999Z,-3.71
2023-12-03T07:01:50.391Z,-3.65
2023-12-03T07:04:16.792Z,-3.61
2023-12-03T07:06:43.284Z,-3.58
2023-12-03T07:09:36.277Z,-3.54
2023-12-03T07:11:56.016Z,-3.61
2023-12-03T07:14:22.473Z,-3.65
2023-12-03T07:16:48.881Z,-3.63
2023-12-03T07:19:15.291Z,-3.64
2023-12-03T07:21:41.782Z,-3.63
2023-12-03T07:24:08.190Z,-3.62
2023-12-03T07:26:34.974Z,-3.63
2023-12-03T07:29:01.357Z,-3.67
2023-12-03T07:31:27.705Z,-3.66
2023-12-03T07:33:54.146Z,-3.61
2023-12-03T07:36:20.616Z,-3.61
2023-12-03T07:38:47.062Z,-3.52
2023-12-03T07:41:13.474Z,-3.48
2023-12-03T07:43:39.824Z,-3.43
2023-12-03T07:46:07.205Z,-3.34
2023-12-03T07:48:34.653Z,-3.27
2023-12-03T07:51:01.060Z,-3.16
2023-12-03T07:53:27.420Z,-3.06
2023-12-03T07:55:53.782Z,-2.96
2023-12-03T07:58:20.120Z,-2.88
2023-12-03T08:00:46.472Z,-2.82
2023-12-03T08:03:12.901Z,-2.79
2023-12-03T08:05:39.263Z,-2.66
2023-12-03T08:08:05.716Z,-2.64
2023-12-03T08:10:32.069Z,-2.62
2023-12-03T08:12:58.403Z,-2.58
2023-12-03T08:15:24.782Z,-2.55
2023-12-03T08:17:51.206Z,-2.51
2023-12-03T08:20:17.567Z,-2.43
2023-12-03T08:22:43.982Z,-2.33
2023-12-03T08:25:12.491Z,-2.21
2023-12-03T08:27:39.276Z,-2.07
2023-12-03T08:30:06.777Z,-1.90
2023-12-03T08:32:33.148Z,-1.71
2023-12-03T08:34:59.566Z,-1.59
2023-12-03T08:37:25.932Z,-1.50
2023-12-03T08:39:52.276Z,-1.49
2023-12-03T08:42:18.627Z,-1.54
2023-12-03T08:44:45.021Z,-1.52
2023-12-03T08:47:11.377Z,-1.51
2023-12-03T08:49:37.845Z,-1.51
2023-12-03T08:52:04.516Z,-1.48
2023-12-03T08:54:33.618Z,-1.38
2023-12-03T08:56:59.983Z,-1.25
2023-12-03T08:59:26.345Z,-1.15
2023-12-03T09:01:52.996Z,-1.07
2023-12-03T09:04:19.348Z,-0.90
2023-12-03T09:06:45.729Z,-0.75
2023-12-03T09:09:12.101Z,-0.64
2023-12-03T09:11:42.752Z,-0.58
2023-12-03T09:14:09.342Z,-0.47
2023-12-03T09:16:35.734Z,-0.57
2023-12-03T09:19:02.468Z,-0.62
2023-12-03T09:21:28.930Z,-0.60
2023-12-03T09:23:55.359Z,-0.50
2023-12-03T09:26:21.699Z,-0.40
2023-12-03T09:28:48.035Z,-0.29
2023-12-03T09:31:14.660Z,-0.19
2023-12-03T09:33:41.080Z,-0.03
2023-12-03T09:36:09.159Z,0.08
2023-12-03T09:38:35.530Z,0.15
2023-12-03T09:41:08.474Z,0.30
2023-12-03T09:43:38.172Z,0.51
2023-12-03T09:46:10.622Z,0.59
2023-12-03T09:48:44.451Z,0.75
2023-12-03T09:51:11.715Z,0.93
2023-12-03T09:53:43.425Z,1.05
2023-12-03T09:56:10.886Z,1.15
2023-12-03T09:58:37.421Z,1.03
2023-12-03T10:01:06.943Z,1.00
2023-12-03T10:03:33.569Z,1.16
2023-12-03T10:05:59.935Z,1.02
2023-12-03T10:08:27.061Z,0.87
2023-12-03T10:11:00.716Z,0.90
2023-12-03T10:13:27.608Z,1.02
2023-12-03T10:15:54.033Z,0.98
2023-12-03T10:18:20.704Z,0.88
2023-12-03T10:20:47.154Z,0.91
2023-12-03T10:23:16.727Z,0.92
2023-12-03T10:25:43.142Z,0.93
2023-12-03T10:28:10.281Z,0.91
2023-12-03T10:30:37.521Z,0.83
2023-12-03T10:33:04.927Z,0.81
2023-12-03T10:35:37.911Z,0.73
2023-12-03T10:38:07.747Z,0.50
2023-12-03T10:40:34.516Z,0.45
2023-12-03T10:43:01.421Z,0.21
2023-12-03T10:45:28.179Z,0.15
2023-12-03T10:48:00.200Z,0.11
2023-12-03T10:50:27.473Z,-0.07
2023-12-03T10:52:54.496Z,0.00
2023-12-03T10:55:23.574Z,-0.01
2023-12-03T10:58:04.181Z,0.12
2023-12-03T11:00:53.738Z,0.18
2023-12-03T11:03:32.468Z,0.29
2023-12-03T11:06:03.510Z,0.30
2023-12-03T11:08:32.046Z,0.25
2023-12-03T11:10:58.753Z,0.28
2023-12-03T11:13:32.034Z,0.41
2023-12-03T11:16:05.598Z,0.39
2023-12-03T11:18:35.201Z,0.46
2023-12-03T11:21:34.638Z,0.42
2023-12-03T11:24:33.351Z,0.25
2023-12-03T11:27:00.212Z,0.12
2023-12-03T11:29:46.607Z,0.14
2023-12-03T11:32:12.956Z,0.17
2023-12-03T11:34:40.178Z,0.17
2023-12-03T11:37:09.956Z,0.22
2023-12-03T11:39:44.650Z,0.23
2023-12-03T11:42:11.302Z,0.29
2023-12-03T11:44:37.655Z,0.34
2023-12-03T11:47:08.149Z,0.35
2023-12-03T11:49:39.339Z,0.42
2023-12-03T11:52:06.275Z,0.46
2023-12-03T11:55:00.010Z,0.51
2023-12-03T11:57:26.696Z,0.56
2023-12-03T11:59:53.075Z,0.59
2023-12-03T12:02:19.802Z,0.56
2023-12-03T12:04:46.294Z,0.57
2023-12-03T12:07:17.422Z,0.48
2023-12-03T12:09:50.506Z,0.54
2023-12-03T12:12:16.912Z,0.53
2023-12-03T12:14:44.748Z,0.57
2023-12-03T12:17:11.159Z,0.57
2023-12-03T12:19:45.869Z,0.52
2023-12-03T12:22:12.350Z,0.52
2023-12-03T12:24:38.815Z,0.45
2023-12-03T12:27:05.298Z,0.43
2023-12-03T12:29:31.641Z,0.43
2023-12-03T12:31:58.061Z,0.49
2023-12-03T12:34:25.064Z,0.58
2023-12-03T12:37:03.378Z,0.67
2023-12-03T12:39:30.118Z,0.67
2023-12-03T12:41:57.308Z,0.59
2023-12-03T12:44:46.626Z,0.66
2023-12-03T12:47:16.549Z,0.60
2023-12-03T12:49:52.150Z,0.64
2023-12-03T12:52:18.920Z,0.68
2023-12-03T12:54:49.894Z,0.61
2023-12-03T12:57:19.060Z,0.61
2023-12-03T12:59:45.700Z,0.58
2023-12-03T13:02:23.103Z,0.55
2023-12-03T13:04:49.631Z,0.54
2023-12-03T13:07:16.512Z,0.50
2023-12-03T13:09:42.884Z,0.38
2023-12-03T13:12:10.196Z,0.36
2023-12-03T13:14:37.583Z,0.35
2023-12-03T13:17:04.496Z,0.36
2023-12-03T13:19:31.122Z,0.39
2023-12-03T13:21:57.791Z,0.36
2023-12-03T13:24:26.838Z,0.36
2023-12-03T13:26:53.670Z,0.23
2023-12-03T13:29:20.019Z,0.19
2023-12-03T13:31:46.436Z,0.15
2023-12-03T13:34:12.932Z,0.09
2023-12-03T13:36:39.592Z,0.10
2023-12-03T13:39:06.820Z,0.10
2023-12-03T13:41:34.690Z,0.08
2023-12-03T13:44:01.018Z,0.10
2023-12-03T13:46:27.497Z,0.05
2023-12-03T13:48:53.902Z,-0.01
2023-12-03T13:51:20.488Z,-0.02
2023-12-03T13:53:46.993Z,-0.03
2023-12-03T13:56:13.408Z,-0.01
2023-12-03T13:58:40.921Z,-0.01
2023-12-03T14:01:07.456Z,-0.10
2023-12-03T14:03:33.885Z,-0.15
2023-12-03T14:06:00.282Z,-0.20
2023-12-03T14:08:26.705Z,-0.16
2023-12-03T14:10:53.169Z,-0.20
2023-12-03T14:13:19.497Z,-0.22
2023-12-03T14:15:46.173Z,-0.23
2023-12-03T14:18:12.692Z,-0.31
2023-12-03T14:20:39.114Z,-0.36
2023-12-03T14:23:05.491Z,-0.47
2023-12-03T14:25:31.891Z,-0.49
2023-12-03T14:27:58.337Z,-0.50
2023-12-03T14:30:24.740Z,-0.49
2023-12-03T14:32:51.224Z,-0.52
2023-12-03T14:35:18.316Z,-0.59
2023-12-03T14:37:44.688Z,-0.65
2023-12-03T14:40:11.708Z,-0.64
2023-12-03T14:42:38.160Z,-0.61
2023-12-03T14:45:05.247Z,-0.65
2023-12-03T14:47:31.607Z,-0.68
2023-12-03T14:49:59.228Z,-0.78
2023-12-03T14:52:25.587Z,-0.89
2023-12-03T14:54:52.077Z,-0.99
2023-12-03T14:57:18.480Z,-1.00
2023-12-03T14:59:44.812Z,-1.05
2023-12-03T15:02:11.293Z,-1.07
2023-12-03T15:04:41.556Z,-1.14
2023-12-03T15:07:08.985Z,-1.20
2023-12-03T15:09:35.347Z,-1.26
2023-12-03T15:12:01.681Z,-1.32
2023-12-03T15:25:49.322Z,-1.63
2023-12-03T15:34:21.510Z,-1.83
2023-12-03T15:36:47.953Z,-1.87
2023-12-03T15:39:14.438Z,-1.91
2023-12-03T15:41:40.839Z,-1.95
2023-12-03T15:44:07.291Z,-2.02
2023-12-03T15:46:33.628Z,-2.09
2023-12-03T15:49:05.887Z,-2.22
2023-12-03T15:51:36.408Z,-2.28
2023-12-03T15:54:02.775Z,-2.33
2023-12-03T15:56:29.183Z,-2.38
2023-12-03T15:58:55.984Z,-2.47
2023-12-03T16:01:22.323Z,-2.47
2023-12-03T16:03:48.742Z,-2.48
2023-12-03T16:06:15.213Z,-2.48
2023-12-03T16:08:41.555Z,-2.50
2023-12-03T16:11:07.933Z,-2.54
2023-12-03T16:13:34.318Z,-2.61
2023-12-03T16:16:01.334Z,-2.66
2023-12-03T16:18:27.765Z,-2.72
2023-12-03T16:20:54.208Z,-2.81
2023-12-03T16:23:20.748Z,-2.86
2023-12-03T16:25:47.079Z,-2.90
2023-12-03T16:28:13.521Z,-2.92
2023-12-03T16:30:39.878Z,-2.96
2023-12-03T16:33:08.493Z,-2.98
2023-12-03T16:35:34.890Z,-3.04
2023-12-03T16:38:01.580Z,-3.11
2023-12-03T16:40:27.923Z,-3.17
2023-12-03T16:42:54.359Z,-3.24
2023-12-03T16:45:20.728Z,-3.29
2023-12-03T16:47:47.205Z,-3.35
2023-12-03T16:50:13.672Z,-3.39
2023-12-03T16:52:40.036Z,-3.43
2023-12-03T16:55:08.116Z,-3.47
2023-12-03T16:57:34.472Z,-3.53
2023-12-03T17:00:01.859Z,-3.56
2023-12-03T17:02:28.221Z,-3.56
2023-12-03T17:04:54.666Z,-3.56
2023-12-03T17:07:21.014Z,-3.59
2023-12-03T17:09:47.553Z,-3.64
2023-12-03T17:12:13.914Z,-3.66
2023-12-03T17:14:40.429Z,-3.68
2023-12-03T17:17:06.988Z,-3.68
2023-12-03T17:19:33.461Z,-3.73
2023-12-03T17:22:00.821Z,-3.76
2023-12-03T17:24:27.226Z,-3.82
2023-12-03T17:26:53.689Z,-3.89
2023-12-03T17:29:20.108Z,-3.92
2023-12-03T17:31:46.637Z,-3.93
2023-12-03T17:34:13.284Z,-3.92
2023-12-03T17:36:39.889Z,-3.94
2023-12-03T17:39:08.912Z,-3.97
2023-12-03T17:41:35.815Z,-3.97
2023-12-03T17:44:02.157Z,-4.00
2023-12-03T17:46:28.539Z,-4.01
2023-12-03T17:48:54.960Z,-4.04
2023-12-03T17:51:21.405Z,-3.96
2023-12-03T17:53:47.736Z,-3.86
2023-12-03T17:56:14.461Z,-3.87
2023-12-03T17:58:40.864Z,-3.86
2023-12-03T18:01:07.656Z,-3.87
2023-12-03T18:03:34.176Z,-3.94
2023-12-03T18:06:00.774Z,-4.04
2023-12-03T18:08:27.470Z,-4.12
2023-12-03T18:10:53.973Z,-4.22
2023-12-03T18:13:20.448Z,-4.34
2023-12-03T18:15:46.998Z,-4.45
2023-12-03T18:18:15.002Z,-4.52
2023-12-03T18:20:41.632Z,-4.57
2023-12-03T18:23:08.827Z,-4.62
2023-12-03T18:25:35.503Z,-4.66
2023-12-03T18:28:03.640Z,-4.73
2023-12-03T18:30:30.394Z,-4.76
2023-12-03T18:32:56.868Z,-4.80
2023-12-03T18:35:23.444Z,-4.87
2023-12-03T18:37:49.857Z,-4.91
2023-12-03T18:40:16.405Z,-4.96
2023-12-03T18:42:42.893Z,-5.03
2023-12-03T18:45:09.665Z,-5.07
2023-12-03T18:47:36.129Z,-5.10
2023-12-03T18:50:02.645Z,-5.16
2023-12-03T18:52:29.324Z,-5.21
2023-12-03T18:54:56.449Z,-5.21
2023-12-03T18:57:22.800Z,-5.22
2023-12-03T18:59:50.303Z,-5.22
2023-12-03T19:02:17.151Z,-5.21
2023-12-03T19:04:43.752Z,-5.21
2023-12-03T19:07:10.126Z,-5.22
2023-12-03T19:09:36.949Z,-5.20
2023-12-03T19:12:03.597Z,-5.18
2023-12-03T19:14:30.069Z,-5.15
2023-12-03T19:16:56.694Z,-5.18
2023-12-03T19:19:23.200Z,-5.22
2023-12-03T19:21:49.826Z,-5.23
2023-12-03T19:24:16.512Z,-5.25
2023-12-03T19:26:42.855Z,-5.32
2023-12-03T19:29:09.329Z,-5.36
2023-12-03T19:31:41.067Z,-5.44
2023-12-03T19:34:07.602Z,-5.56
2023-12-03T19:36:34.310Z,-5.65
2023-12-03T19:39:00.735Z,-5.63
2023-12-03T19:41:27.106Z,-5.61
2023-12-03T19:43:53.600Z,-5.60
2023-12-03T19:46:20.040Z,-5.58
2023-12-03T19:48:46.527Z,-5.57
2023-12-03T19:51:12.942Z,-5.57
2023-12-03T19:53:39.398Z,-5.61
2023-12-03T19:56:06.342Z,-5.68
2023-12-03T19:58:35.357Z,-5.68
2023-12-03T20:01:01.936Z,-5.69
2023-12-03T20:03:28.353Z,-5.68
2023-12-03T20:05:56.337Z,-5.67
2023-12-03T20:08:22.695Z,-5.68
2023-12-03T20:10:49.185Z,-5.69
2023-12-03T20:13:15.857Z,-5.74
2023-12-03T20:15:42.464Z,-5.76
2023-12-03T20:18:09.551Z,-5.77
2023-12-03T20:20:36.175Z,-5.80
2023-12-03T20:23:02.841Z,-5.81
2023-12-03T20:25:29.229Z,-5.79
2023-12-03T20:27:56.068Z,-5.81
2023-12-03T20:30:22.504Z,-5.82
2023-12-03T20:32:49.682Z,-5.82
2023-12-03T20:35:16.740Z,-5.79
2023-12-03T20:37:43.307Z,-5.80
2023-12-03T20:40:10.747Z,-5.82
2023-12-03T20:42:37.184Z,-5.86
2023-12-03T20:45:04.020Z,-5.92
2023-12-03T20:47:30.640Z,-5.95
2023-12-03T20:49:57.097Z,-5.99
2023-12-03T20:52:23.479Z,-6.04
2023-12-03T20:54:49.987Z,-6.02
2023-12-03T20:57:16.373Z,-6.03
2023-12-03T20:59:42.814Z,-6.06
2023-12-03T21:02:09.325Z,-6.09
2023-12-03T21:04:35.831Z,-6.08
2023-12-03T21:07:03.665Z,-6.13
2023-12-03T21:09:30.085Z,-6.21
2023-12-03T21:11:57.415Z,-6.19
2023-12-03T21:14:23.804Z,-6.18
2023-12-03T21:16:50.712Z,-6.19
2023-12-03T21:19:17.146Z,-6.23
2023-12-03T21:21:43.545Z,-6.22
2023-12-03T21:24:10.003Z,-6.16
2023-12-03T21:26:36.477Z,-6.11
2023-12-03T21:29:03.125Z,-6.05
2023-12-03T21:31:29.610Z,-6.01
2023-12-03T21:33:56.326Z,-6.01
2023-12-03T21:36:24.410Z,-6.13
2023-12-03T21:38:52.555Z,-6.16
2023-12-03T21:41:19.078Z,-6.17
2023-12-03T21:43:45.734Z,-6.14
2023-12-03T21:46:12.344Z,-6.13
2023-12-03T21:48:38.824Z,-6.16
2023-12-03T21:51:05.599Z,-6.14
2023-12-03T21:53:32.057Z,-6.12
2023-12-03T21:55:58.463Z,-6.13
2023-12-03T21:58:24.812Z,-6.14
2023-12-03T22:00:51.828Z,-6.13
2023-12-03T22:03:18.330Z,-6.13
2023-12-03T22:05:45.068Z,-6.13
2023-12-03T22:08:11.443Z,-6.15
2023-12-03T22:10:37.834Z,-6.17
2023-12-03T22:13:04.265Z,-6.17
2023-12-03T22:15:31.215Z,-6.15
2023-12-03T22:17:57.743Z,-6.13
2023-12-03T22:20:24.597Z,-6.11
2023-12-03T22:22:51.887Z,-6.07
2023-12-03T22:25:18.657Z,-6.09
2023-12-03T22:27:45.120Z,-6.10
2023-12-03T22:30:16.509Z,-6.11
2023-12-03T22:32:44.646Z,-6.19
2023-12-03T22:35:11.070Z,-6.27
2023-12-03T22:37:37.497Z,-6.34
2023-12-03T22:40:05.759Z,-6.32
2023-12-03T22:42:32.216Z,-6.31
2023-12-03T22:45:00.565Z,-6.28
2023-12-03T22:47:26.984Z,-6.30
2023-12-03T22:49:53.830Z,-6.31
2023-12-03T22:52:20.251Z,-6.32
2023-12-03T22:54:46.727Z,-6.29
2023-12-03T22:57:13.377Z,-6.29
2023-12-03T22:59:39.768Z,-6.41
2023-12-03T23:02:06.242Z,-6.43
2023-12-03T23:04:32.867Z,-6.44
2023-12-03T23:06:59.340Z,-6.39
2023-12-03T23:09:25.790Z,-6.37
2023-12-03T23:11:52.155Z,-6.43
2023-12-03T23:14:18.645Z,-6.47
2023-12-03T23:16:45.054Z,-6.51
2023-12-03T23:19:12.711Z,-6.52
2023-12-03T23:21:40.018Z,-6.53
2023-12-03T23:24:07.840Z,-6.50
2023-12-03T23:26:34.392Z,-6.49
2023-12-03T23:29:01.500Z,-6.50
2023-12-03T23:31:27.951Z,-6.53
2023-12-03T23:33:54.386Z,-6.56
2023-12-03T23:36:20.933Z,-6.55
2023-12-03T23:38:47.284Z,-6.54
2023-12-03T23:41:13.906Z,-6.57
2023-12-03T23:43:40.288Z,-6.57
2023-12-03T23:46:07.001Z,-6.56
2023-12-03T23:48:33.558Z,-6.53
2023-12-03T23:51:00.030Z,-6.52
2023-12-03T23:53:26.398Z,-6.51
2023-12-03T23:55:53.139Z,-6.49
2023-12-03T23:58:21.276Z,-6.50
